Time,TemperatureF,DewpointF,PressureIn,WindDirection,WindDirectionDegrees,WindSpeedMPH,WindSpeedGustMPH,Humidity,HourlyPrecipIn,Conditions,Clouds,dailyrainin,SoftwareType,DateUTC
2013-05-29 00:00:00,61.9,58.6,30.09,ENE,69,0.0,0.0,89,0.00,,,0.00,WeatherDisplay:10.37,2013-05-29 04:00:00,
2013-05-29 00:01:00,61.9,58.6,30.09,ENE,68,0.0,0.0,89,0.00,,,0.00,WeatherDisplay:10.37,2013-05-29 04:01:00,
2013-05-29 00:06:00,61.6,58.3,30.09,ENE,68,0.0,0.0,89,0.00,,,0.00,WeatherDisplay:10.37,2013-05-29 04:06:00,
2013-05-29 00:11:00,61.3,58.3,30.09,ENE,68,1.2,0.0,90,0.00,,,0.00,WeatherDisplay:10.37,2013-05-29 04:11:00,
2013-05-29 00:16:00,61.1,58.1,30.09,ENE,68,0.0,0.0,90,0.00,,,0.00,WeatherDisplay:10.37,2013-05-29 04:16:00,
2013-05-29 00:21:00,60.8,57.8,30.09,ENE,68,0.0,0.0,90,0.00,,,0.00,WeatherDisplay:10.37,2013-05-29 04:21:00,
2013-05-29 00:26:00,60.5,57.9,30.09,ENE,68,0.0,0.0,91,0.00,,,0.00,WeatherDisplay:10.37,2013-05-29 04:26:00,
2013-05-29 00:31:00,60.4,57.8,30.09,ENE,68,0.0,0.0,91,0.00,,,0.00,WeatherDisplay:10.37,2013-05-29 04:31:00,
2013-05-29 00:36:00,60.2,57.9,30.09,ENE,68,0.0,0.0,92,0.00,,,0.00,WeatherDisplay:10.37,2013-05-29 04:36:00,
2013-05-29 00:41:00,59.9,57.6,30.09,ENE,68,0.0,0.0,92,0.00,,,0.00,WeatherDisplay:10.37,2013-05-29 04:41:00,
2013-05-29 00:46:00,59.8,57.5,30.09,ENE,68,0.0,0.0,92,0.00,,,0.00,WeatherDisplay:10.37,2013-05-29 04:46:00,
2013-05-29 00:51:00,59.6,57.3,30.09,ENE,69,0.0,0.0,92,0.00,,,0.00,WeatherDisplay:10.37,2013-05-29 04:51:00,
2013-05-29 00:56:00,59.4,57.4,30.09,ENE,68,0.0,0.0,93,0.00,,,0.00,WeatherDisplay:10.37,2013-05-29 04:56:00,
2013-05-29 01:01:00,59.1,57.1,30.09,ENE,68,0.0,0.0,93,0.00,,,0.00,WeatherDisplay:10.37,2013-05-29 05:01:00,
2013-05-29 01:06:00,59.0,57.0,30.09,ENE,68,0.0,0.0,93,0.00,,,0.00,WeatherDisplay:10.37,2013-05-29 05:06:00,
2013-05-29 01:11:00,58.8,56.8,30.09,ENE,68,0.0,0.0,93,0.00,,,0.00,WeatherDisplay:10.37,2013-05-29 05:11:00,
2013-05-29 01:16:00,58.6,56.6,30.09,ENE,68,0.0,0.0,93,0.00,,,0.00,WeatherDisplay:10.37,2013-05-29 05:16:00,
2013-05-29 01:21:00,58.5,56.8,30.09,ENE,68,1.2,0.0,94,0.00,,,0.00,WeatherDisplay:10.37,2013-05-29 05:21:00,
2013-05-29 01:26:00,58.3,56.6,30.10,ENE,68,0.0,0.0,94,0.00,,,0.00,WeatherDisplay:10.37,2013-05-29 05:26:00,
2013-05-29 01:31:00,58.2,56.5,30.10,ENE,68,0.0,0.0,94,0.00,,,0.00,WeatherDisplay:10.37,2013-05-29 05:31:00,
2013-05-29 01:36:00,58.0,56.3,30.10,ENE,68,0.0,0.0,94,0.00,,,0.00,WeatherDisplay:10.37,2013-05-29 05:36:00,
2013-05-29 01:41:00,57.9,56.2,30.10,ENE,68,0.0,0.0,94,0.00,,,0.00,WeatherDisplay:10.37,2013-05-29 05:41:00,
2013-05-29 01:46:00,57.9,56.5,30.09,ENE,68,0.0,0.0,95,0.00,,,0.00,WeatherDisplay:10.37,2013-05-29 05:46:00,
2013-05-29 01:51:00,57.8,56.1,30.09,ENE,68,0.0,0.0,94,0.00,,,0.00,WeatherDisplay:10.37,2013-05-29 05:51:00,
2013-05-29 01:56:00,57.6,56.2,30.09,ENE,68,0.0,0.0,95,0.00,,,0.00,WeatherDisplay:10.37,2013-05-29 05:56:00,
2013-05-29 02:01:00,57.5,56.1,30.10,ENE,68,0.0,0.0,95,0.00,,,0.00,WeatherDisplay:10.37,2013-05-29 06:01:00,
2013-05-29 02:07:00,57.3,55.6,30.10,ENE,68,0.0,0.0,94,0.00,,,0.00,WeatherDisplay:10.37,2013-05-29 06:07:00,
2013-05-29 02:12:00,57.2,55.8,30.10,ENE,68,0.0,0.0,95,0.00,,,0.00,WeatherDisplay:10.37,2013-05-29 06:12:00,
2013-05-29 02:17:00,57.1,55.7,30.11,ENE,68,0.0,0.0,95,0.00,,,0.00,WeatherDisplay:10.37,2013-05-29 06:17:00,
2013-05-29 02:22:00,57.0,55.6,30.10,ENE,68,0.0,0.0,95,0.00,,,0.00,WeatherDisplay:10.37,2013-05-29 06:22:00,
2013-05-29 02:27:00,57.0,55.6,30.11,ENE,68,0.0,0.0,95,0.00,,,0.00,WeatherDisplay:10.37,2013-05-29 06:27:00,
2013-05-29 02:32:00,56.9,55.5,30.11,ENE,69,0.0,0.0,95,0.00,,,0.00,WeatherDisplay:10.37,2013-05-29 06:32:00,
2013-05-29 02:37:00,56.7,55.3,30.12,ENE,68,0.0,0.0,95,0.00,,,0.00,WeatherDisplay:10.37,2013-05-29 06:37:00,
2013-05-29 02:42:00,56.5,55.4,30.12,ENE,68,0.0,0.0,96,0.00,,,0.00,WeatherDisplay:10.37,2013-05-29 06:42:00,
2013-05-29 02:47:00,56.4,55.3,30.12,ENE,68,0.0,0.0,96,0.00,,,0.00,WeatherDisplay:10.37,2013-05-29 06:47:00,
2013-05-29 02:52:00,56.4,55.3,30.12,ENE,68,0.0,0.0,96,0.00,,,0.00,WeatherDisplay:10.37,2013-05-29 06:52:00,
2013-05-29 02:57:00,56.2,55.1,30.13,ENE,68,0.0,0.0,96,0.00,,,0.00,WeatherDisplay:10.37,2013-05-29 06:57:00,
2013-05-29 03:02:00,56.2,55.1,30.13,ENE,68,0.0,0.0,96,0.00,,,0.00,WeatherDisplay:10.37,2013-05-29 07:02:00,
2013-05-29 03:07:00,56.0,54.9,30.13,ENE,68,0.0,0.0,96,0.00,,,0.00,WeatherDisplay:10.37,2013-05-29 07:07:00,
2013-05-29 03:12:00,55.9,54.8,30.13,ENE,68,0.0,0.0,96,0.00,,,0.00,WeatherDisplay:10.37,2013-05-29 07:12:00,
2013-05-29 03:17:00,55.8,54.7,30.13,ENE,68,0.0,0.0,96,0.00,,,0.00,WeatherDisplay:10.37,2013-05-29 07:17:00,
2013-05-29 03:22:00,55.8,54.7,30.13,ENE,68,0.0,0.0,96,0.00,,,0.00,WeatherDisplay:10.37,2013-05-29 07:22:00,
2013-05-29 03:27:00,55.8,54.7,30.13,ENE,68,0.0,0.0,96,0.00,,,0.00,WeatherDisplay:10.37,2013-05-29 07:27:00,
2013-05-29 03:33:00,55.6,54.5,30.13,ENE,68,0.0,0.0,96,0.00,,,0.00,WeatherDisplay:10.37,2013-05-29 07:33:00,
2013-05-29 03:38:00,55.6,54.5,30.14,ENE,68,0.0,0.0,96,0.00,,,0.00,WeatherDisplay:10.37,2013-05-29 07:38:00,
2013-05-29 03:43:00,55.5,54.4,30.14,ENE,68,0.0,0.0,96,0.00,,,0.00,WeatherDisplay:10.37,2013-05-29 07:43:00,
2013-05-29 03:48:00,55.4,54.3,30.14,ENE,68,0.0,0.0,96,0.00,,,0.00,WeatherDisplay:10.37,2013-05-29 07:48:00,
2013-05-29 03:53:00,55.4,54.6,30.14,ENE,68,0.0,0.0,97,0.00,,,0.00,WeatherDisplay:10.37,2013-05-29 07:53:00,
2013-05-29 03:58:00,55.5,54.7,30.14,ENE,68,0.0,0.0,97,0.00,,,0.00,WeatherDisplay:10.37,2013-05-29 07:58:00,
2013-05-29 04:03:00,55.5,54.7,30.14,ENE,68,0.0,0.0,97,0.00,CLR,,0.00,WeatherDisplay:10.37,2013-05-29 08:03:00,
2013-05-29 04:08:00,55.4,54.6,30.15,ENE,68,0.0,0.0,97,0.00,CLR,,0.00,WeatherDisplay:10.37,2013-05-29 08:08:00,
2013-05-29 04:13:00,55.2,54.4,30.15,ENE,68,0.0,0.0,97,0.00,CLR,,0.00,WeatherDisplay:10.37,2013-05-29 08:13:00,
2013-05-29 04:18:00,55.0,53.9,30.15,ENE,68,0.0,0.0,96,0.00,CLR,,0.00,WeatherDisplay:10.37,2013-05-29 08:18:00,
2013-05-29 04:23:00,54.9,54.1,30.15,ENE,68,0.0,0.0,97,0.00,CLR,,0.00,WeatherDisplay:10.37,2013-05-29 08:23:00,
2013-05-29 04:28:00,55.0,54.2,30.15,ENE,68,0.0,0.0,97,0.00,CLR,,0.00,WeatherDisplay:10.37,2013-05-29 08:28:00,
2013-05-29 04:33:00,55.1,54.3,30.15,ENE,68,0.0,0.0,97,0.00,CLR,,0.00,WeatherDisplay:10.37,2013-05-29 08:33:00,
2013-05-29 04:38:00,55.1,54.3,30.15,ENE,68,0.0,0.0,97,0.00,CLR,,0.00,WeatherDisplay:10.37,2013-05-29 08:38:00,
2013-05-29 04:43:00,55.0,54.2,30.15,ENE,68,0.0,0.0,97,0.00,CLR,,0.00,WeatherDisplay:10.37,2013-05-29 08:43:00,
2013-05-29 04:48:00,54.9,54.1,30.15,ENE,68,0.0,0.0,97,0.00,CLR,,0.00,WeatherDisplay:10.37,2013-05-29 08:48:00,
2013-05-29 04:53:00,54.9,54.1,30.15,ENE,68,0.0,0.0,97,0.00,CLR,,0.00,WeatherDisplay:10.37,2013-05-29 08:53:00,
2013-05-29 04:58:00,54.7,53.9,30.15,ENE,68,0.0,0.0,97,0.00,CLR,,0.00,WeatherDisplay:10.37,2013-05-29 08:58:00,
2013-05-29 05:03:00,54.6,53.8,30.15,ENE,68,0.0,0.0,97,0.00,CLR,,0.00,WeatherDisplay:10.37,2013-05-29 09:03:00,
2013-05-29 05:08:00,54.6,53.8,30.15,ENE,68,0.0,0.0,97,0.00,CLR,,0.00,WeatherDisplay:10.37,2013-05-29 09:08:00,
2013-05-29 05:13:00,54.7,53.9,30.14,ENE,68,0.0,0.0,97,0.00,CLR,,0.00,WeatherDisplay:10.37,2013-05-29 09:13:00,
2013-05-29 05:18:00,54.8,54.0,30.14,ENE,68,0.0,0.0,97,0.00,CLR,,0.00,WeatherDisplay:10.37,2013-05-29 09:18:00,
2013-05-29 05:23:00,54.7,53.9,30.14,ENE,68,0.0,0.0,97,0.00,CLR,,0.00,WeatherDisplay:10.37,2013-05-29 09:23:00,
2013-05-29 05:28:00,54.7,53.9,30.14,ENE,68,0.0,0.0,97,0.00,CLR,,0.00,WeatherDisplay:10.37,2013-05-29 09:28:00,
2013-05-29 05:33:00,54.5,53.7,30.14,ENE,68,0.0,0.0,97,0.00,CLR,,0.00,WeatherDisplay:10.37,2013-05-29 09:33:00,
2013-05-29 05:38:00,54.3,53.5,30.14,ENE,68,0.0,0.0,97,0.00,CLR,,0.00,WeatherDisplay:10.37,2013-05-29 09:38:00,
2013-05-29 05:43:00,54.1,53.3,30.14,ENE,68,0.0,0.0,97,0.00,CLR,,0.00,WeatherDisplay:10.37,2013-05-29 09:43:00,
2013-05-29 05:48:00,54.0,53.2,30.14,ENE,68,0.0,0.0,97,0.00,CLR,,0.00,WeatherDisplay:10.37,2013-05-29 09:48:00,
2013-05-29 05:53:00,54.0,53.2,30.14,ENE,68,0.0,0.0,97,0.00,CLR,,0.00,WeatherDisplay:10.37,2013-05-29 09:53:00,
2013-05-29 05:58:00,53.9,53.1,30.14,ENE,68,0.0,0.0,97,0.00,CLR,,0.00,WeatherDisplay:10.37,2013-05-29 09:58:00,
2013-05-29 06:03:00,53.9,53.1,30.14,ENE,68,0.0,0.0,97,0.00,CLR,,0.00,WeatherDisplay:10.37,2013-05-29 10:03:00,
2013-05-29 06:08:00,54.1,53.5,30.15,ENE,68,0.0,0.0,98,0.00,CLR,,0.00,WeatherDisplay:10.37,2013-05-29 10:08:00,
2013-05-29 06:13:00,53.9,53.1,30.15,ENE,68,0.0,0.0,97,0.00,CLR,,0.00,WeatherDisplay:10.37,2013-05-29 10:13:00,
2013-05-29 06:18:00,53.7,52.9,30.15,ENE,68,0.0,0.0,97,0.00,CLR,,0.00,WeatherDisplay:10.37,2013-05-29 10:18:00,
2013-05-29 06:23:00,53.8,53.0,30.15,ENE,68,0.0,0.0,97,0.00,CLR,,0.00,WeatherDisplay:10.37,2013-05-29 10:23:00,
2013-05-29 06:28:00,53.7,52.9,30.15,ENE,68,0.0,0.0,97,0.00,CLR,,0.00,WeatherDisplay:10.37,2013-05-29 10:28:00,
2013-05-29 06:33:00,53.6,52.8,30.15,ENE,68,0.0,0.0,97,0.00,CLR,,0.00,WeatherDisplay:10.37,2013-05-29 10:33:00,
2013-05-29 06:38:00,53.9,53.3,30.15,ENE,68,0.0,0.0,98,0.00,CLR,,0.00,WeatherDisplay:10.37,2013-05-29 10:38:00,
2013-05-29 06:43:00,54.4,53.8,30.15,ENE,68,0.0,0.0,98,0.00,CLR,,0.00,WeatherDisplay:10.37,2013-05-29 10:43:00,
2013-05-29 06:48:00,54.4,53.6,30.16,ENE,68,0.0,0.0,97,0.00,CLR,,0.00,WeatherDisplay:10.37,2013-05-29 10:48:00,
2013-05-29 06:53:00,54.5,53.9,30.15,ENE,68,0.0,0.0,98,0.00,CLR,,0.00,WeatherDisplay:10.37,2013-05-29 10:53:00,
2013-05-29 06:59:00,54.6,54.0,30.16,ENE,68,0.0,0.0,98,0.00,CLR,,0.00,WeatherDisplay:10.37,2013-05-29 10:59:00,
2013-05-29 07:04:00,55.0,54.4,30.16,ENE,68,0.0,0.0,98,0.00,CLR,,0.00,WeatherDisplay:10.37,2013-05-29 11:04:00,
2013-05-29 07:09:00,55.5,54.9,30.16,ENE,68,0.0,0.0,98,0.00,CLR,,0.00,WeatherDisplay:10.37,2013-05-29 11:09:00,
2013-05-29 07:14:00,56.9,56.3,30.16,ENE,68,0.0,0.0,98,0.00,CLR,,0.00,WeatherDisplay:10.37,2013-05-29 11:14:00,
2013-05-29 07:19:00,57.0,55.9,30.16,ENE,69,0.0,0.0,96,0.00,CLR,,0.00,WeatherDisplay:10.37,2013-05-29 11:19:00,
2013-05-29 07:24:00,57.2,56.4,30.16,ENE,68,0.0,0.0,97,0.00,CLR,,0.00,WeatherDisplay:10.37,2013-05-29 11:24:00,
2013-05-29 07:29:00,57.6,56.5,30.17,ENE,68,0.0,0.0,96,0.00,CLR,,0.00,WeatherDisplay:10.37,2013-05-29 11:29:00,
2013-05-29 07:34:00,58.2,57.1,30.16,ENE,68,0.0,0.0,96,0.00,CLR,,0.00,WeatherDisplay:10.37,2013-05-29 11:34:00,
2013-05-29 07:39:00,59.1,58.0,30.17,ENE,68,0.0,0.0,96,0.00,CLR,,0.00,WeatherDisplay:10.37,2013-05-29 11:39:00,
2013-05-29 07:44:00,60.0,58.6,30.17,ENE,68,0.0,0.0,95,0.00,CLR,,0.00,WeatherDisplay:10.37,2013-05-29 11:44:00,
2013-05-29 07:49:00,61.0,59.6,30.17,ENE,68,0.0,0.0,95,0.00,CLR,,0.00,WeatherDisplay:10.37,2013-05-29 11:49:00,
2013-05-29 07:54:00,62.8,61.6,30.17,ENE,68,1.2,0.0,96,0.00,CLR,,0.00,WeatherDisplay:10.37,2013-05-29 11:54:00,
2013-05-29 07:59:00,64.5,61.8,30.17,ENE,68,1.2,1.2,91,0.00,CLR,,0.00,WeatherDisplay:10.37,2013-05-29 11:59:00,
2013-05-29 08:04:00,65.3,61.3,30.17,ENE,73,1.2,1.2,87,0.00,CLR,,0.00,WeatherDisplay:10.37,2013-05-29 12:04:00,
2013-05-29 08:09:00,65.9,60.9,30.17,ESE,123,1.2,1.2,84,0.00,CLR,,0.00,WeatherDisplay:10.37,2013-05-29 12:09:00,
2013-05-29 08:14:00,66.0,61.0,30.17,SE,142,2.3,2.3,84,0.00,CLR,,0.00,WeatherDisplay:10.37,2013-05-29 12:14:00,
2013-05-29 08:19:00,66.3,61.3,30.17,East,89,2.3,2.3,84,0.00,CLR,,0.00,WeatherDisplay:10.37,2013-05-29 12:19:00,
2013-05-29 08:24:00,66.8,61.5,30.18,SSE,148,2.3,2.3,83,0.00,CLR,,0.00,WeatherDisplay:10.37,2013-05-29 12:24:00,
2013-05-29 08:29:00,67.4,61.4,30.18,SE,144,3.5,3.5,81,0.00,CLR,,0.00,WeatherDisplay:10.37,2013-05-29 12:29:00,
2013-05-29 08:34:00,67.7,61.3,30.18,ENE,65,2.3,2.3,80,0.00,CLR,,0.00,WeatherDisplay:10.37,2013-05-29 12:34:00,
2013-05-29 08:39:00,67.9,60.8,30.18,NNE,32,3.5,3.5,78,0.00,CLR,,0.00,WeatherDisplay:10.37,2013-05-29 12:39:00,
2013-05-29 08:44:00,67.7,61.0,30.18,NNE,29,3.5,3.5,79,0.00,CLR,,0.00,WeatherDisplay:10.37,2013-05-29 12:44:00,
2013-05-29 08:49:00,68.0,61.2,30.18,North,355,2.3,2.3,79,0.00,CLR,,0.00,WeatherDisplay:10.37,2013-05-29 12:49:00,
2013-05-29 08:54:00,68.9,62.1,30.18,North,1,2.0,2.0,79,0.00,CLR,,0.00,WeatherDisplay:10.37,2013-05-29 12:54:00,
2013-05-29 08:59:00,69.5,62.7,30.18,NW,326,0.0,0.0,79,0.00,CLR,,0.00,WeatherDisplay:10.37,2013-05-29 12:59:00,
2013-05-29 09:04:00,70.4,62.5,30.18,NNW,348,1.2,1.2,76,0.00,CLR,,0.00,WeatherDisplay:10.37,2013-05-29 13:04:00,
2013-05-29 09:09:00,71.1,63.9,30.18,NNW,335,2.3,2.3,78,0.00,CLR,,0.00,WeatherDisplay:10.37,2013-05-29 13:09:00,
2013-05-29 09:14:00,70.9,63.7,30.18,NNW,328,0.0,0.0,78,0.00,CLR,,0.00,WeatherDisplay:10.37,2013-05-29 13:14:00,
2013-05-29 09:19:00,72.3,64.3,30.19,NNW,329,2.3,2.3,76,0.00,CLR,,0.00,WeatherDisplay:10.37,2013-05-29 13:19:00,
2013-05-29 09:24:00,72.7,63.1,30.18,SE,146,3.5,3.5,72,0.00,CLR,,0.00,WeatherDisplay:10.37,2013-05-29 13:24:00,
2013-05-29 09:29:00,72.9,64.1,30.18,SSE,151,1.2,1.2,74,0.00,CLR,,0.00,WeatherDisplay:10.37,2013-05-29 13:29:00,
2013-05-29 09:34:00,73.1,62.7,30.19,East,95,2.3,2.3,70,0.00,CLR,,0.00,WeatherDisplay:10.37,2013-05-29 13:34:00,
2013-05-29 09:39:00,73.2,64.0,30.19,SE,130,1.2,1.2,73,0.00,CLR,,0.00,WeatherDisplay:10.37,2013-05-29 13:39:00,
2013-05-29 09:44:00,74.2,63.0,30.19,West,259,2.0,2.0,68,0.00,CLR,,0.00,WeatherDisplay:10.37,2013-05-29 13:44:00,
2013-05-29 09:49:00,74.2,62.5,30.19,SW,223,2.0,2.0,67,0.00,CLR,,0.00,WeatherDisplay:10.37,2013-05-29 13:49:00,
2013-05-29 09:54:00,74.3,62.2,30.19,WSW,253,3.5,3.5,66,0.00,CLR,,0.00,WeatherDisplay:10.37,2013-05-29 13:54:00,
2013-05-29 09:55:00,79.9,64.3,30.08,SW,225,0.0,0.0,59,0.00,CLR,,0.00,WeatherDisplay:10.37,2013-05-29 13:55:00,
2013-05-29 09:59:00,74.2,62.5,30.19,West,266,2.3,2.3,67,0.00,CLR,,0.00,WeatherDisplay:10.37,2013-05-29 13:59:00,
2013-05-29 10:00:00,79.4,63.3,30.08,SW,219,1.0,2.0,58,0.00,CLR,,0.00,WeatherDisplay:10.37,2013-05-29 14:00:00,
2013-05-29 10:04:00,74.5,62.4,30.19,West,272,2.3,2.3,66,0.00,CLR,,0.00,WeatherDisplay:10.37,2013-05-29 14:04:00,
2013-05-29 10:09:00,75.2,63.1,30.19,WSW,254,1.2,1.2,66,0.00,CLR,,0.00,WeatherDisplay:10.37,2013-05-29 14:09:00,
2013-05-29 10:14:00,75.4,61.5,30.19,WSW,257,3.5,3.5,62,0.00,CLR,,0.00,WeatherDisplay:10.37,2013-05-29 14:14:00,
2013-05-29 10:19:00,75.4,61.5,30.18,WSW,248,3.5,3.5,62,0.00,CLR,,0.00,WeatherDisplay:10.37,2013-05-29 14:19:00,
2013-05-29 10:24:00,75.6,62.1,30.18,SW,220,4.0,4.0,63,0.00,CLR,,0.00,WeatherDisplay:10.37,2013-05-29 14:24:00,
2013-05-29 10:29:00,75.8,61.8,30.18,WNW,291,4.0,4.0,62,0.00,CLR,,0.00,WeatherDisplay:10.37,2013-05-29 14:29:00,
2013-05-29 10:34:00,75.4,61.0,30.18,NW,309,4.6,4.6,61,0.00,CLR,,0.00,WeatherDisplay:10.37,2013-05-29 14:34:00,
2013-05-29 10:39:00,75.7,61.8,30.18,WSW,244,3.5,3.5,62,0.00,CLR,,0.00,WeatherDisplay:10.37,2013-05-29 14:39:00,
2013-05-29 10:44:00,76.2,62.2,30.18,WNW,302,3.5,3.5,62,0.00,CLR,,0.00,WeatherDisplay:10.37,2013-05-29 14:44:00,
2013-05-29 10:49:00,76.4,62.4,30.18,WNW,302,4.6,4.6,62,0.00,CLR,,0.00,WeatherDisplay:10.37,2013-05-29 14:49:00,
2013-05-29 10:54:00,76.6,61.2,30.18,WNW,298,9.2,9.2,59,0.00,CLR,,0.00,WeatherDisplay:10.37,2013-05-29 14:54:00,
2013-05-29 10:59:00,76.3,60.4,30.18,WNW,298,4.6,4.6,58,0.00,CLR,,0.00,WeatherDisplay:10.37,2013-05-29 14:59:00,
2013-05-29 11:04:00,76.6,61.2,30.18,West,263,4.6,4.6,59,0.00,CLR,,0.00,WeatherDisplay:10.37,2013-05-29 15:04:00,
2013-05-29 11:09:00,77.0,61.6,30.18,West,266,3.5,3.5,59,0.00,CLR,,0.00,WeatherDisplay:10.37,2013-05-29 15:09:00,
2013-05-29 11:14:00,77.3,61.9,30.18,West,260,3.5,3.5,59,0.00,CLR,,0.00,WeatherDisplay:10.37,2013-05-29 15:14:00,
2013-05-29 11:19:00,77.7,62.2,30.18,WSW,248,3.5,3.5,59,0.00,CLR,,0.00,WeatherDisplay:10.37,2013-05-29 15:19:00,
2013-05-29 11:24:00,77.8,61.8,30.18,WSW,239,8.1,8.1,58,0.00,CLR,,0.00,WeatherDisplay:10.37,2013-05-29 15:24:00,
2013-05-29 11:29:00,78.2,59.7,30.18,West,260,6.9,6.9,53,0.00,CLR,,0.00,WeatherDisplay:10.37,2013-05-29 15:29:00,
2013-05-29 11:34:00,78.5,62.0,30.18,West,262,6.9,6.9,57,0.00,CLR,,0.00,WeatherDisplay:10.37,2013-05-29 15:34:00,
2013-05-29 11:39:00,78.7,61.2,30.18,WSW,256,4.6,4.6,55,0.00,CLR,,0.00,WeatherDisplay:10.37,2013-05-29 15:39:00,
2013-05-29 11:44:00,79.1,62.6,30.18,WNW,294,5.8,5.8,57,0.00,CLR,,0.00,WeatherDisplay:10.37,2013-05-29 15:44:00,
2013-05-29 11:49:00,79.0,63.4,30.18,NW,322,3.5,3.5,59,0.00,CLR,,0.00,WeatherDisplay:10.37,2013-05-29 15:49:00,
2013-05-29 11:54:00,79.6,63.5,30.18,WNW,297,4.0,4.0,58,0.00,CLR,,0.00,WeatherDisplay:10.37,2013-05-29 15:54:00,
2013-05-29 11:59:00,79.7,61.6,30.18,West,281,4.6,4.6,54,0.00,CLR,,0.00,WeatherDisplay:10.37,2013-05-29 15:59:00,
2013-05-29 12:04:00,78.8,62.3,30.18,WNW,302,4.6,4.6,57,0.00,CLR,,0.00,WeatherDisplay:10.37,2013-05-29 16:04:00,
2013-05-29 12:09:00,79.3,62.7,30.18,WSW,249,9.2,9.2,57,0.00,CLR,,0.00,WeatherDisplay:10.37,2013-05-29 16:09:00,
2013-05-29 12:14:00,79.5,61.4,30.18,WNW,295,5.8,5.8,54,0.00,CLR,,0.00,WeatherDisplay:10.37,2013-05-29 16:14:00,
2013-05-29 12:19:00,78.9,61.4,30.18,WNW,286,5.8,5.8,55,0.00,CLR,,0.00,WeatherDisplay:10.37,2013-05-29 16:19:00,
2013-05-29 12:24:00,78.1,61.1,30.18,WSW,251,1.2,1.3,56,0.00,CLR,,0.00,WeatherDisplay:10.37,2013-05-29 16:24:00,
2013-05-29 12:29:00,78.6,61.6,30.18,WNW,293,5.8,5.8,56,0.00,CLR,,0.00,WeatherDisplay:10.37,2013-05-29 16:29:00,
2013-05-29 12:34:00,78.1,61.6,30.18,West,266,2.3,2.3,57,0.00,CLR,,0.00,WeatherDisplay:10.37,2013-05-29 16:34:00,
2013-05-29 12:39:00,78.5,61.5,30.18,NW,314,3.5,3.5,56,0.00,CLR,,0.00,WeatherDisplay:10.37,2013-05-29 16:39:00,
2013-05-29 12:45:00,79.2,61.1,30.18,NW,307,5.0,5.0,54,0.00,CLR,,0.00,WeatherDisplay:10.37,2013-05-29 16:45:00,
2013-05-29 18:59:00,85.3,62.2,30.08,WSW,240,11.5,11.5,46,0.00,CLR,,0.00,WeatherDisplay:10.37,2013-05-29 22:59:00,
2013-05-29 19:04:00,84.6,62.7,30.08,WSW,252,1.2,0.0,48,0.00,CLR,,0.00,WeatherDisplay:10.37,2013-05-29 23:04:00,
2013-05-29 19:09:00,84.2,61.2,30.08,West,264,2.3,2.3,46,0.00,CLR,,0.00,WeatherDisplay:10.37,2013-05-29 23:09:00,
2013-05-29 19:14:00,83.7,63.1,30.08,West,264,1.2,1.2,50,0.00,CLR,,0.00,WeatherDisplay:10.37,2013-05-29 23:14:00,
2013-05-29 19:19:00,83.3,63.3,30.08,West,264,0.0,0.0,51,0.00,CLR,,0.00,WeatherDisplay:10.37,2013-05-29 23:19:00,
2013-05-29 19:24:00,83.4,64.5,30.08,West,264,1.2,0.0,53,0.00,CLR,,0.00,WeatherDisplay:10.37,2013-05-29 23:24:00,
2013-05-29 19:29:00,83.3,64.9,30.08,West,264,1.2,1.2,54,0.00,CLR,,0.00,WeatherDisplay:10.37,2013-05-29 23:29:00,
2013-05-29 19:34:00,82.6,64.3,30.08,WSW,253,1.2,1.2,54,0.00,CLR,,0.00,WeatherDisplay:10.37,2013-05-29 23:34:00,
2013-05-29 19:39:00,81.3,64.1,30.08,WSW,238,1.2,1.2,56,0.00,CLR,,0.00,WeatherDisplay:10.37,2013-05-29 23:39:00,
2013-05-29 19:44:00,80.7,63.5,30.08,WSW,238,0.0,0.0,56,0.00,CLR,,0.00,WeatherDisplay:10.37,2013-05-29 23:44:00,
2013-05-29 19:49:00,80.3,63.7,30.08,SW,234,1.2,1.2,57,0.00,CLR,,0.00,WeatherDisplay:10.37,2013-05-29 23:49:00,
2013-05-29 19:54:00,80.1,64.0,30.08,SW,234,0.0,0.0,58,0.00,CLR,,0.00,WeatherDisplay:10.37,2013-05-29 23:54:00,
2013-05-29 20:05:00,79.0,61.5,30.08,WSW,255,11.5,11.5,55,0.00,CLR,,0.00,WeatherDisplay:10.37,2013-05-30 00:05:00,
2013-05-29 20:10:00,78.8,63.3,30.08,West,269,0.0,0.0,59,0.00,CLR,,0.00,WeatherDisplay:10.37,2013-05-30 00:10:00,
2013-05-29 20:15:00,78.1,63.1,30.08,SW,233,1.2,1.2,60,0.00,CLR,,0.00,WeatherDisplay:10.37,2013-05-30 00:15:00,
2013-05-29 20:20:00,77.3,63.3,30.09,WSW,257,1.2,1.2,62,0.00,CLR,,0.00,WeatherDisplay:10.37,2013-05-30 00:20:00,
2013-05-29 20:25:00,76.2,62.7,30.09,WSW,249,1.2,1.2,63,0.00,CLR,,0.00,WeatherDisplay:10.37,2013-05-30 00:25:00,
2013-05-29 20:30:00,75.4,63.2,30.09,WSW,250,1.2,1.2,66,0.00,CLR,,0.00,WeatherDisplay:10.37,2013-05-30 00:30:00,
2013-05-29 20:35:00,74.6,62.9,30.09,SSW,205,2.3,2.3,67,0.00,CLR,,0.00,WeatherDisplay:10.37,2013-05-30 00:35:00,
2013-05-29 20:40:00,73.8,62.6,30.09,SSW,205,1.2,1.2,68,0.00,CLR,,0.00,WeatherDisplay:10.37,2013-05-30 00:40:00,
2013-05-29 20:45:00,73.3,62.5,30.09,SSW,204,1.2,1.2,69,0.00,CLR,,0.00,WeatherDisplay:10.37,2013-05-30 00:45:00,
2013-05-29 20:51:00,73.1,61.1,30.09,West,262,1.2,1.2,66,0.00,CLR,,0.00,WeatherDisplay:10.37,2013-05-30 00:51:00,
2013-05-29 20:56:00,73.0,62.2,30.09,West,262,1.2,0.0,69,0.00,CLR,,0.00,WeatherDisplay:10.37,2013-05-30 00:56:00,
2013-05-29 21:01:00,72.5,62.2,30.09,SSW,212,1.2,1.2,70,0.00,,,0.00,WeatherDisplay:10.37,2013-05-30 01:01:00,
2013-05-29 21:06:00,72.0,62.1,30.09,SSW,212,2.0,2.0,71,0.00,,,0.00,WeatherDisplay:10.37,2013-05-30 01:06:00,
2013-05-29 21:11:00,71.7,61.8,30.09,NNE,28,2.3,2.3,71,0.00,,,0.00,WeatherDisplay:10.37,2013-05-30 01:11:00,
2013-05-29 21:16:00,71.7,61.8,30.09,NNE,28,0.0,0.0,71,0.00,,,0.00,WeatherDisplay:10.37,2013-05-30 01:16:00,
2013-05-29 21:21:00,71.4,61.5,30.10,NNE,28,0.0,0.0,71,0.00,,,0.00,WeatherDisplay:10.37,2013-05-30 01:21:00,
2013-05-29 21:26:00,71.0,61.5,30.10,WNW,299,1.2,0.0,72,0.00,,,0.00,WeatherDisplay:10.37,2013-05-30 01:26:00,
2013-05-29 21:31:00,70.5,61.4,30.10,SSW,203,1.2,1.2,73,0.00,,,0.00,WeatherDisplay:10.37,2013-05-30 01:31:00,
2013-05-29 21:36:00,70.1,61.4,30.10,SSW,203,1.2,1.2,74,0.00,,,0.00,WeatherDisplay:10.37,2013-05-30 01:36:00,
2013-05-29 21:41:00,69.8,61.5,30.10,SSW,203,0.0,0.0,75,0.00,,,0.00,WeatherDisplay:10.37,2013-05-30 01:41:00,
2013-05-29 21:46:00,69.6,60.9,30.10,SW,236,0.0,0.0,74,0.00,,,0.00,WeatherDisplay:10.37,2013-05-30 01:46:00,
2013-05-29 21:51:00,69.4,61.5,30.10,SW,236,1.2,1.2,76,0.00,,,0.00,WeatherDisplay:10.37,2013-05-30 01:51:00,
2013-05-29 21:56:00,69.3,61.4,30.11,SW,236,0.0,0.0,76,0.00,,,0.00,WeatherDisplay:10.37,2013-05-30 01:56:00,
2013-05-29 22:01:00,69.1,61.2,30.11,SW,236,0.0,0.0,76,0.00,,,0.00,WeatherDisplay:10.37,2013-05-30 02:01:00,
2013-05-29 22:06:00,68.9,61.4,30.11,SW,236,1.2,1.2,77,0.00,,,0.00,WeatherDisplay:10.37,2013-05-30 02:06:00,
2013-05-29 22:11:00,68.7,61.2,30.11,SW,236,0.0,0.0,77,0.00,,,0.00,WeatherDisplay:10.37,2013-05-30 02:11:00,
2013-05-29 22:16:00,68.4,60.9,30.12,SW,236,0.0,0.0,77,0.00,,,0.00,WeatherDisplay:10.37,2013-05-30 02:16:00,
2013-05-29 22:21:00,68.2,61.1,30.12,SW,236,0.0,0.0,78,0.00,,,0.00,WeatherDisplay:10.37,2013-05-30 02:21:00,
2013-05-29 22:26:00,68.1,61.0,30.12,WSW,240,1.2,0.0,78,0.00,,,0.00,WeatherDisplay:10.37,2013-05-30 02:26:00,
2013-05-29 22:31:00,67.9,60.8,30.12,WSW,241,0.0,0.0,78,0.00,,,0.00,WeatherDisplay:10.37,2013-05-30 02:31:00,
2013-05-29 22:36:00,67.8,60.7,30.12,WSW,240,0.0,0.0,78,0.00,,,0.00,WeatherDisplay:10.37,2013-05-30 02:36:00,
2013-05-29 22:41:00,67.6,60.9,30.12,WSW,240,0.0,0.0,79,0.00,,,0.00,WeatherDisplay:10.37,2013-05-30 02:41:00,
2013-05-29 22:46:00,67.3,60.9,30.13,WSW,238,0.0,0.0,80,0.00,,,0.00,WeatherDisplay:10.37,2013-05-30 02:46:00,
2013-05-29 22:51:00,67.0,60.6,30.13,WSW,238,0.0,0.0,80,0.00,,,0.00,WeatherDisplay:10.37,2013-05-30 02:51:00,
2013-05-29 22:56:00,66.6,60.6,30.13,WSW,242,1.0,1.0,81,0.00,,,0.00,WeatherDisplay:10.37,2013-05-30 02:56:00,
2013-05-29 23:01:00,66.4,60.7,30.13,ENE,67,1.2,1.2,82,0.00,,,0.00,WeatherDisplay:10.37,2013-05-30 03:01:00,
2013-05-29 23:06:00,66.2,60.2,30.13,ENE,68,2.3,2.3,81,0.00,CLR,,0.00,WeatherDisplay:10.37,2013-05-30 03:06:00,
2013-05-29 23:11:00,66.7,60.3,30.13,SE,140,3.5,3.5,80,0.00,CLR,,0.00,WeatherDisplay:10.37,2013-05-30 03:11:00,
2013-05-29 23:16:00,66.8,60.4,30.13,East,91,2.3,2.3,80,0.00,CLR,,0.00,WeatherDisplay:10.37,2013-05-30 03:16:00,
2013-05-29 23:21:00,66.4,60.4,30.13,SE,138,3.0,3.0,81,0.00,CLR,,0.00,WeatherDisplay:10.37,2013-05-30 03:21:00,
2013-05-29 23:26:00,66.0,60.0,30.14,SE,137,1.2,1.2,81,0.00,CLR,,0.00,WeatherDisplay:10.37,2013-05-30 03:26:00,
2013-05-29 23:31:00,65.5,60.2,30.14,SE,134,2.3,2.3,83,0.00,CLR,,0.00,WeatherDisplay:10.37,2013-05-30 03:31:00,
2013-05-29 23:36:00,65.2,60.2,30.14,SE,146,2.3,2.3,84,0.00,CLR,,0.00,WeatherDisplay:10.37,2013-05-30 03:36:00,
2013-05-29 23:41:00,64.8,59.9,30.14,SSE,147,1.2,1.2,84,0.00,CLR,,0.00,WeatherDisplay:10.37,2013-05-30 03:41:00,
2013-05-29 23:46:00,64.6,60.0,30.14,SSE,148,0.0,0.0,85,0.00,CLR,,0.00,WeatherDisplay:10.37,2013-05-30 03:46:00,
2013-05-29 23:51:00,64.4,59.8,30.14,SSE,148,0.0,0.0,85,0.00,CLR,,0.00,WeatherDisplay:10.37,2013-05-30 03:51:00,
2013-05-29 23:56:00,64.2,59.9,30.14,SSE,148,1.2,0.0,86,0.00,CLR,,0.00,WeatherDisplay:10.37,2013-05-30 03:56:00,